This is the latest recevied weather packets stored in our database for station/object PY2CQC-13. If no packets are shown the sender has not sent any weather packets the latest 10 day(s).
| Time | Temp. | Humidity | Pressure | Rain* | Wind** | Luminosity | Snow |
|---|---|---|---|---|---|---|---|
| 1777555924 | 24.44° C | 67% | 1035.3 hPa | - | - | - | - |
| 1777554124 | 22.78° C | 72% | 1035.2 hPa | - | - | - | - |
| 1777552325 | 22.22° C | 74% | 1035 hPa | - | - | - | - |
| 1777550525 | 21.11° C | 79% | 1034.8 hPa | - | - | - | - |
| 1777548725 | 19.44° C | 84% | 1034.4 hPa | - | - | - | - |
| 1777546925 | 18.89° C | 85% | 1034 hPa | - | - | - | - |
| 1777545124 | 21.11° C | 73% | 1033.5 hPa | - | - | - | - |
| 1777543324 | 21.11° C | 73% | 1033.4 hPa | - | - | - | - |
| 1777541524 | 21.11° C | 72% | 1033.1 hPa | - | - | - | - |
| 1777539725 | 20.56° C | 73% | 1032.9 hPa | - | - | - | - |
| 1777537925 | 21.11° C | 73% | 1033 hPa | - | - | - | - |
| 1777536125 | 21.11° C | 72% | 1032.7 hPa | - | - | - | - |
| 1777534325 | 21.11° C | 73% | 1032.8 hPa | - | - | - | - |
| 1777532524 | 21.11° C | 73% | 1032.9 hPa | - | - | - | - |
| 1777530724 | 20.56° C | 75% | 1032.5 hPa | - | - | - | - |
| 1777528925 | 20.56° C | 74% | 1032.7 hPa | - | - | - | - |
| 1777527125 | 20° C | 75% | 1033.6 hPa | - | - | - | - |
| 1777525325 | 20° C | 75% | 1034 hPa | - | - | - | - |
| 1777523525 | 20° C | 75% | 1034.4 hPa | - | - | - | - |
| 1777521725 | 21.11° C | 72% | 1036.1 hPa | - | - | - | - |
| 1777519924 | 22.22° C | 67% | 1036.8 hPa | - | - | - | - |
| 1777518124 | 22.22° C | 68% | 1036.1 hPa | - | - | - | - |
| 1777516324 | 23.33° C | 66% | 1036 hPa | - | - | - | - |
| 1777514525 | 23.89° C | 64% | 1034.3 hPa | - | - | - | - |
| 1777512725 | 23.33° C | 59% | 1033.1 hPa | - | - | - | - |
* Rain since midnight (hover to see other rain measurements)
** Current wind speed in m/s (hover to see current wind gust speed)